Time;durP1;ratioP1;P1;durP2;ratioP2;P2;SDS_P1;SDS_P2;PMS_P1;PMS_P2;Temp;Humidity;BMP_temperature;BMP_pressure;BME280_temperature;BME280_humidity;BME280_pressure;Samples;Min_cycle;Max_cycle;Signal;HPM_P1;HPM_P2
2022/09/18 00:04:52;;;;;;;19.88;2.95;;;;;;;12.17;100.00;101659.84;10565910;28;20027;-70
2022/09/18 00:09:52;;;;;;;5.30;2.08;;;;;;;12.27;100.00;101656.81;10585610;28;20474;-70
2022/09/18 00:14:53;;;;;;;6.85;2.22;;;;;;;12.30;100.00;101667.31;10596872;28;20043;-70
2022/09/18 00:19:53;;;;;;;5.28;1.95;;;;;;;12.39;100.00;101671.59;10577916;28;20031;-71
2022/09/18 00:24:54;;;;;;;7.38;2.15;;;;;;;12.47;100.00;101667.91;10596294;28;20027;-72
2022/09/18 00:29:54;;;;;;;12.93;2.33;;;;;;;12.46;100.00;101660.81;10580966;28;20055;-71
2022/09/18 00:34:55;;;;;;;4.43;1.77;;;;;;;12.43;100.00;101651.16;10578799;28;20056;-71
2022/09/18 00:39:55;;;;;;;5.85;2.05;;;;;;;12.42;100.00;101668.50;10596480;28;20084;-71
2022/09/18 00:44:56;;;;;;;1.17;1.08;;;;;;;12.61;100.00;101674.38;10595785;28;20043;-71
2022/09/18 00:50:19;;;;;;;10.00;2.15;;;;;;;12.59;100.00;101665.56;10577308;28;20056;-71
2022/09/18 00:55:22;;;;;;;15.32;1.75;;;;;;;12.55;100.00;101673.25;10580562;28;20118;-71
2022/09/18 01:00:23;;;;;;;8.70;2.20;;;;;;;12.60;100.00;101665.34;10578034;28;20412;-71
2022/09/18 01:05:32;;;;;;;17.27;2.10;;;;;;;12.62;100.00;101673.31;10595421;28;20160;-72
2022/09/18 01:10:50;;;;;;;4.03;1.00;;;;;;;12.52;100.00;101670.91;10595105;28;20050;-71
2022/09/18 01:15:56;;;;;;;6.40;1.50;;;;;;;12.52;100.00;101670.91;10577573;28;20363;-71
2022/09/18 01:21:02;;;;;;;14.95;2.10;;;;;;;12.45;100.00;101640.13;10557408;28;20028;-69
2022/09/18 01:26:18;;;;;;;2.47;1.52;;;;;;;12.33;100.00;101643.31;10569412;28;20082;-69
2022/09/18 01:31:30;;;;;;;14.65;2.15;;;;;;;12.22;100.00;101634.81;10588209;28;20038;-71
2022/09/18 01:36:33;;;;;;;5.55;1.45;;;;;;;12.19;100.00;101619.78;10554716;28;20054;-69
2022/09/18 01:41:33;;;;;;;2.95;0.93;;;;;;;12.24;100.00;101635.47;10587802;28;20035;-70
2022/09/18 01:46:33;;;;;;;6.10;1.35;;;;;;;12.21;100.00;101630.44;10569810;28;20390;-69
2022/09/18 01:51:37;;;;;;;1.77;0.75;;;;;;;12.22;100.00;101627.53;10552386;28;20031;-69
2022/09/18 01:56:41;;;;;;;3.58;0.75;;;;;;;12.31;100.00;101622.81;10568407;28;20066;-70
2022/09/18 02:01:41;;;;;;;2.67;1.23;;;;;;;12.38;100.00;101612.03;10551818;28;20039;-71
2022/09/18 02:06:52;;;;;;;1.55;1.35;;;;;;;12.45;100.00;101612.97;10567968;28;20031;-71
2022/09/18 02:11:53;;;;;;;3.30;1.85;;;;;;;12.57;100.00;101614.97;10552080;28;20035;-71
2022/09/18 02:16:57;;;;;;;5.05;1.98;;;;;;;12.64;100.00;101608.78;10568381;28;20110;-70
2022/09/18 02:21:58;;;;;;;4.72;1.67;;;;;;;12.66;100.00;101614.84;10585091;28;20043;-70
2022/09/18 02:26:58;;;;;;;1.30;1.17;;;;;;;12.60;100.00;101613.72;10567424;28;20111;-71
2022/09/18 02:31:59;;;;;;;1.85;1.13;;;;;;;12.62;100.00;101614.38;10584448;28;20032;-71
2022/09/18 02:37:01;;;;;;;1.35;1.25;;;;;;;12.74;100.00;101603.84;10567425;28;20459;-71
2022/09/18 02:42:20;;;;;;;1.42;1.33;;;;;;;12.88;100.00;101600.19;10566732;28;20063;-70
2022/09/18 02:47:29;;;;;;;1.73;1.50;;;;;;;12.92;100.00;101606.94;10585136;28;20055;-71
2022/09/18 02:52:54;;;;;;;12.57;1.25;;;;;;;12.98;100.00;101597.16;10584935;28;20020;-71
2022/09/18 02:57:59;;;;;;;11.88;1.52;;;;;;;12.92;100.00;101597.94;10552535;28;20389;-71
2022/09/18 03:02:59;;;;;;;17.05;2.67;;;;;;;12.92;100.00;101589.78;10565559;28;20123;-71
2022/09/18 03:08:01;;;;;;;15.25;2.28;;;;;;;13.01;100.00;101597.59;10583757;28;20096;-70
2022/09/18 03:13:01;;;;;;;5.63;2.33;;;;;;;12.98;100.00;101597.16;10565480;28;20085;-71
2022/09/18 03:18:02;;;;;;;8.63;1.52;;;;;;;12.97;100.00;101588.16;10582164;28;20077;-71
2022/09/18 03:23:02;;;;;;;2.75;1.73;;;;;;;12.95;100.00;101583.94;10584182;28;20368;-71
2022/09/18 03:28:03;;;;;;;7.50;1.27;;;;;;;12.91;100.00;101588.94;10582259;28;20085;-71
2022/09/18 03:33:03;;;;;;;5.97;2.05;;;;;;;12.91;100.00;101585.38;10564708;28;20471;-71
2022/09/18 03:38:04;;;;;;;8.55;2.45;;;;;;;12.96;100.00;101580.22;10583391;28;20599;-70
2022/09/18 03:43:04;;;;;;;2.88;1.20;;;;;;;12.85;100.00;101576.13;10582417;28;20035;-70
2022/09/18 03:48:05;;;;;;;10.57;2.55;;;;;;;12.85;100.00;101575.28;10581713;28;20356;-71
2022/09/18 03:53:07;;;;;;;20.27;2.95;;;;;;;12.86;100.00;101574.25;10582861;28;20104;-70
2022/09/18 03:58:07;;;;;;;2.53;1.83;;;;;;;12.92;100.00;101576.19;10583340;28;20027;-71
2022/09/18 04:03:08;;;;;;;2.40;1.73;;;;;;;12.92;100.00;101582.47;10563795;28;20035;-71
2022/09/18 04:08:08;;;;;;;6.38;2.50;;;;;;;12.87;100.00;101590.38;10563707;28;20040;-70
2022/09/18 04:13:08;;;;;;;8.60;2.65;;;;;;;12.84;100.00;101608.94;10563636;28;20380;-70
2022/09/18 04:18:09;;;;;;;2.25;1.05;;;;;;;12.79;100.00;101604.09;10563461;28;20036;-70
2022/09/18 04:23:13;;;;;;;0.60;0.60;;;;;;;12.67;100.00;101587.47;10581669;28;20039;-71
2022/09/18 04:28:13;;;;;;;5.88;1.88;;;;;;;12.54;100.00;101584.63;10581426;28;20085;-71
2022/09/18 04:33:14;;;;;;;2.50;1.23;;;;;;;12.54;100.00;101585.47;10582022;28;20379;-71
2022/09/18 04:38:14;;;;;;;6.15;2.17;;;;;;;12.54;100.00;101576.50;10581368;28;20116;-71
2022/09/18 04:43:14;;;;;;;5.63;1.67;;;;;;;12.62;100.00;101591.81;10562986;28;20057;-71
2022/09/18 04:48:16;;;;;;;5.10;1.65;;;;;;;12.69;100.00;101588.09;10564511;28;20028;-70
2022/09/18 04:53:17;;;;;;;1.60;1.50;;;;;;;12.67;100.00;101584.75;10582150;28;20035;-71
2022/09/18 04:58:19;;;;;;;0.77;0.77;;;;;;;12.55;100.00;101565.41;10583965;28;20040;-70
2022/09/18 05:03:21;;;;;;;1.55;1.15;;;;;;;12.57;100.00;101565.19;10590103;28;20031;-70
2022/09/18 05:08:22;;;;;;;4.03;1.73;;;;;;;12.59;100.00;101565.84;10588499;28;20496;-70
2022/09/18 05:13:23;;;;;;;5.55;2.33;;;;;;;12.57;100.00;101565.19;10570233;28;20070;-70
2022/09/18 05:18:23;;;;;;;7.40;2.20;;;;;;;12.54;100.00;101587.34;10588296;28;20081;-70
2022/09/18 05:23:24;;;;;;;3.75;1.58;;;;;;;12.45;100.00;101573.06;10587990;28;20047;-69
2022/09/18 05:28:24;;;;;;;3.33;2.03;;;;;;;12.42;100.00;101573.44;10587737;28;20031;-69
2022/09/18 05:33:25;;;;;;;3.55;1.25;;;;;;;12.39;100.00;101575.69;10588889;28;20104;-70
2022/09/18 05:38:25;;;;;;;4.65;2.08;;;;;;;12.35;100.00;101558.97;10586238;28;20134;-69
2022/09/18 05:43:26;;;;;;;8.93;1.50;;;;;;;12.33;100.00;101564.56;10568342;28;20031;-69
2022/09/18 05:48:26;;;;;;;4.28;1.08;;;;;;;12.27;100.00;101540.06;10586522;28;20031;-70
2022/09/18 05:53:27;;;;;;;4.05;0.98;;;;;;;12.40;100.00;101545.63;10568828;28;20035;-69
2022/09/18 05:58:27;;;;;;;5.38;1.10;;;;;;;12.53;100.00;101544.91;10587975;28;20412;-69
2022/09/18 06:03:28;;;;;;;4.78;2.33;;;;;;;12.70;100.00;101535.47;10569285;28;20110;-70
2022/09/18 06:08:28;;;;;;;3.65;1.95;;;;;;;12.91;100.00;101537.28;10586577;28;20145;-70
2022/09/18 06:13:28;;;;;;;6.28;1.77;;;;;;;13.07;100.00;101544.31;10585510;28;20036;-70
2022/09/18 06:18:29;;;;;;;0.73;0.73;;;;;;;13.19;100.00;101552.75;10585905;28;20036;-70
2022/09/18 06:23:29;;;;;;;7.65;1.67;;;;;;;13.28;100.00;101542.63;10587424;28;20035;-70
2022/09/18 06:28:31;;;;;;;8.52;1.55;;;;;;;13.33;100.00;101543.66;10586649;28;20054;-71
2022/09/18 06:33:34;;;;;;;10.77;1.70;;;;;;;13.41;100.00;101529.09;10586641;28;20031;-70
2022/09/18 06:38:34;;;;;;;2.17;1.15;;;;;;;13.50;100.00;101536.03;10584880;28;20043;-68
2022/09/18 06:43:35;;;;;;;4.60;1.23;;;;;;;13.62;100.00;101533.56;10584773;28;20050;-69
2022/09/18 06:48:35;;;;;;;5.43;2.05;;;;;;;13.64;100.00;101534.22;10585700;28;20118;-70
2022/09/18 06:53:35;;;;;;;11.50;2.47;;;;;;;13.60;100.00;101552.84;10566761;28;20055;-69
2022/09/18 06:58:36;;;;;;;8.25;2.00;;;;;;;13.64;100.00;101556.81;10584800;28;20096;-69
2022/09/18 07:03:36;;;;;;;3.70;1.52;;;;;;;13.61;100.00;101554.50;10583508;28;20031;-69
2022/09/18 07:08:37;;;;;;;7.88;2.33;;;;;;;13.66;100.00;101554.75;10583243;28;20475;-69
2022/09/18 07:13:37;;;;;;;5.38;1.25;;;;;;;13.66;100.00;101552.03;10564844;28;20040;-69
2022/09/18 07:18:37;;;;;;;4.95;1.40;;;;;;;13.64;100.00;101554.09;10584522;28;20118;-68
2022/09/18 07:23:38;;;;;;;4.07;1.85;;;;;;;13.60;100.00;101560.16;10583177;28;20035;-69
2022/09/18 07:28:38;;;;;;;2.08;1.35;;;;;;;13.41;100.00;101556.28;10583541;28;20034;-68
2022/09/18 07:33:39;;;;;;;11.43;2.17;;;;;;;13.04;100.00;101569.16;10583613;28;20122;-67
2022/09/18 07:38:41;;;;;;;8.77;1.95;;;;;;;12.47;100.00;101553.81;10581380;28;20043;-68
2022/09/18 07:43:41;;;;;;;4.95;2.00;;;;;;;12.32;100.00;101537.63;10582621;28;20528;-68
2022/09/18 07:48:42;;;;;;;12.35;2.28;;;;;;;12.55;100.00;101535.53;10547441;28;20108;-68
2022/09/18 07:53:42;;;;;;;4.63;2.08;;;;;;;12.84;100.00;101530.13;10580986;28;20039;-67
2022/09/18 07:58:43;;;;;;;11.90;2.85;;;;;;;13.07;100.00;101536.16;10582028;28;20028;-68
2022/09/18 08:03:43;;;;;;;3.13;2.10;;;;;;;13.05;100.00;101551.84;10581995;28;20092;-69
2022/09/18 08:08:43;;;;;;;7.93;2.00;;;;;;;12.97;100.00;101560.97;10581282;28;20028;-68
2022/09/18 08:13:47;;;;;;;3.22;1.65;;;;;;;12.97;100.00;101551.97;10581211;28;20031;-67
2022/09/18 08:18:47;;;;;;;13.15;2.95;;;;;;;13.04;100.00;101556.41;10563776;28;20124;-68
2022/09/18 08:23:48;;;;;;;5.03;1.67;;;;;;;13.21;100.00;101550.69;10582158;28;20054;-67
2022/09/18 08:28:48;;;;;;;14.75;3.20;;;;;;;13.32;100.00;101547.44;10581432;28;20032;-70
2022/09/18 08:33:48;;;;;;;8.80;2.28;;;;;;;13.49;100.00;101554.22;10589341;28;20036;-67
2022/09/18 08:38:52;;;;;;;3.38;2.08;;;;;;;13.71;100.00;101557.69;10531185;28;20487;-70
2022/09/18 08:43:57;;;;;;;1.48;0.80;;;;;;;13.82;100.00;101555.47;10589858;28;20027;-70
2022/09/18 08:49:30;;;;;;;3.67;1.30;;;;;;;13.83;100.00;101549.78;10588843;28;20032;-70
2022/09/18 08:54:56;;;;;;;4.25;1.92;;;;;;;13.86;100.00;101554.00;10590422;28;20034;-71
2022/09/18 09:00:00;;;;;;;2.40;1.35;;;;;;;13.89;100.00;101550.88;10588370;28;20027;-71
2022/09/18 09:05:02;;;;;;;1.33;1.10;;;;;;;13.98;100.00;101546.94;10588141;28;20439;-71
2022/09/18 09:10:24;;;;;;;1.85;1.50;;;;;;;14.15;100.00;101542.78;10587800;28;20085;-72
2022/09/18 09:15:44;;;;;;;13.48;1.63;;;;;;;14.59;100.00;101540.59;10589986;28;20039;-72
2022/09/18 09:20:54;;;;;;;4.18;1.38;;;;;;;14.93;100.00;101534.06;10588126;28;20028;-72
2022/09/18 09:26:08;;;;;;;1.92;1.08;;;;;;;15.05;100.00;101535.13;10570919;28;20362;-72
2022/09/18 09:31:08;;;;;;;4.70;1.17;;;;;;;15.19;100.00;101546.88;10587238;28;20031;-72
2022/09/18 09:36:11;;;;;;;5.00;1.33;;;;;;;15.39;100.00;101565.94;10569942;28;20044;-73
2022/09/18 09:41:25;;;;;;;8.23;1.70;;;;;;;15.55;100.00;101559.16;10536523;28;20109;-72
2022/09/18 09:46:40;;;;;;;11.27;3.00;;;;;;;15.49;100.00;101560.84;10568371;28;20051;-72
2022/09/18 09:51:56;;;;;;;7.72;2.58;;;;;;;14.82;100.00;101554.63;10568805;28;20028;-74
2022/09/18 09:57:16;;;;;;;3.97;1.67;;;;;;;14.16;100.00;101539.00;10587259;28;20383;-72
2022/09/18 10:02:32;;;;;;;3.45;1.73;;;;;;;13.86;100.00;101557.56;10587185;28;20023;-69
2022/09/18 10:07:42;;;;;;;3.90;2.25;;;;;;;13.62;100.00;101542.56;10586671;28;20114;-72
2022/09/18 10:13:00;;;;;;;1.40;1.35;;;;;;;13.85;100.00;101552.34;10567473;28;20382;-70
2022/09/18 10:18:03;;;;;;;3.50;1.27;;;;;;;14.07;100.00;101558.47;10585413;28;20039;-70
2022/09/18 10:23:19;;;;;;;1.58;1.00;;;;;;;14.04;100.00;101557.00;10567038;28;20028;-70
2022/09/18 10:28:20;;;;;;;2.78;1.15;;;;;;;14.16;100.00;101555.34;10550940;28;20443;-70
2022/09/18 10:33:32;;;;;;;9.05;1.65;;;;;;;14.39;100.00;101560.44;10584722;28;20040;-71
2022/09/18 10:38:33;;;;;;;19.58;3.25;;;;;;;14.57;100.00;101546.22;10565858;28;20097;-72
2022/09/18 10:43:33;;;;;;;7.72;2.22;;;;;;;14.61;100.00;101544.78;10549686;28;20360;-70
2022/09/18 10:48:35;;;;;;;1.00;1.00;;;;;;;14.30;100.00;101556.25;10585465;28;20447;-69
2022/09/18 10:53:38;;;;;;;3.42;1.58;;;;;;;13.61;100.00;101575.44;10584694;28;20037;-69
2022/09/18 10:58:39;;;;;;;7.25;2.85;;;;;;;13.11;100.00;101572.78;10566182;28;20104;-72
2022/09/18 11:03:48;;;;;;;9.02;3.03;;;;;;;12.95;100.00;101568.47;10565743;28;20062;-72
2022/09/18 11:08:50;;;;;;;4.13;1.63;;;;;;;13.00;100.00;101567.91;10565889;28;20392;-71
2022/09/18 11:13:58;;;;;;;4.65;2.35;;;;;;;13.03;100.00;101575.66;10565084;28;20386;-70
2022/09/18 11:19:18;;;;;;;9.32;1.33;;;;;;;12.95;100.00;101578.50;10565324;28;20059;-70
2022/09/18 11:24:33;;;;;;;3.67;1.33;;;;;;;12.87;100.00;101573.22;10571370;28;20036;-70
2022/09/18 11:29:38;;;;;;;4.95;1.95;;;;;;;12.92;100.00;101578.91;10565568;28;20039;-70
2022/09/18 11:34:44;;;;;;;3.25;2.03;;;;;;;12.99;100.00;101580.66;10583808;28;20059;-66
2022/09/18 11:39:50;;;;;;;6.72;1.65;;;;;;;13.12;100.00;101573.63;10582341;28;20429;-68
2022/09/18 11:44:50;;;;;;;9.13;2.43;;;;;;;13.33;100.00;101568.16;10564193;28;20023;-68
2022/09/18 11:49:54;;;;;;;5.15;2.42;;;;;;;13.49;100.00;101558.84;10564234;28;20471;-71
2022/09/18 11:55:03;;;;;;;6.30;2.80;;;;;;;13.46;100.00;101560.09;10581436;28;20038;-70
2022/09/18 12:00:07;;;;;;;6.55;2.05;;;;;;;13.52;100.00;101552.16;10582307;28;20486;-70
2022/09/18 12:05:20;;;;;;;6.45;2.33;;;;;;;13.62;100.00;101550.72;10580803;28;20032;-69
2022/09/18 12:10:36;;;;;;;4.10;2.13;;;;;;;13.87;100.00;101561.94;10580798;28;20027;-72
2022/09/18 12:15:37;;;;;;;2.80;2.00;;;;;;;13.98;100.00;101548.81;10563533;28;20035;-68
2022/09/18 12:21:03;;;;;;;11.45;2.38;;;;;;;13.99;100.00;101547.75;10563804;28;20040;-69
2022/09/18 12:26:03;;;;;;;8.50;2.47;;;;;;;14.05;100.00;101547.78;10580549;28;20351;-70
2022/09/18 12:31:25;;;;;;;3.25;1.73;;;;;;;14.08;100.00;101544.66;10580907;28;20557;-69
2022/09/18 12:36:28;;;;;;;8.80;1.52;;;;;;;13.93;100.00;101544.81;10580575;28;20091;-71
2022/09/18 12:42:06;;;;;;;12.25;1.92;;;;;;;13.73;100.00;101558.34;10580920;28;20055;-71
2022/09/18 12:47:14;;;;;;;8.85;2.88;;;;;;;13.70;100.00;101538.84;10581054;28;20028;-71
2022/09/18 12:52:42;;;;;;;5.82;2.35;;;;;;;13.60;100.00;101565.59;10561998;28;20054;-70
2022/09/18 12:58:02;;;;;;;2.05;1.20;;;;;;;13.31;100.00;101572.13;10562325;28;20028;-70
2022/09/18 13:03:19;;;;;;;3.63;2.28;;;;;;;13.04;100.00;101580.88;10564775;28;20202;-69
2022/09/18 13:08:26;;;;;;;12.73;3.60;;;;;;;12.85;100.00;101572.56;10563489;28;20416;-68
2022/09/18 13:13:44;;;;;;;8.40;2.30;;;;;;;12.68;100.00;101586.44;10563450;28;20027;-69
2022/09/18 13:18:54;;;;;;;12.02;2.25;;;;;;;12.59;100.00;101578.63;10583671;28;20111;-68
2022/09/18 13:23:55;;;;;;;2.75;1.50;;;;;;;12.61;100.00;101576.56;10569380;28;20028;-68
2022/09/18 13:28:55;;;;;;;5.50;2.22;;;;;;;12.63;100.00;101569.03;10551966;28;20020;-69
2022/09/18 13:33:56;;;;;;;5.90;1.90;;;;;;;12.62;100.00;101578.22;10587672;28;20085;-69
2022/09/18 13:38:59;;;;;;;9.52;1.83;;;;;;;12.61;100.00;101573.84;10568470;28;20134;-69
2022/09/18 13:44:02;;;;;;;6.65;1.38;;;;;;;12.63;100.00;101561.72;10568540;28;20473;-69
2022/09/18 13:49:17;;;;;;;8.15;2.25;;;;;;;12.73;100.00;101562.25;10587401;28;20044;-69
2022/09/18 13:54:27;;;;;;;7.50;2.22;;;;;;;12.76;100.00;101553.69;10552809;28;20039;-70
2022/09/18 14:00:08;;;;;;;6.07;1.85;;;;;;;12.72;100.00;101541.53;10568634;28;20469;-71
2022/09/18 14:05:27;;;;;;;3.72;1.80;;;;;;;12.71;100.00;101549.88;10551809;28;20067;-70
2022/09/18 14:10:40;;;;;;;3.45;1.63;;;;;;;12.78;100.00;101565.19;10587651;28;20034;-71
2022/09/18 14:15:55;;;;;;;6.45;2.13;;;;;;;12.67;100.00;101554.88;10569450;28;20118;-69
2022/09/18 14:21:25;;;;;;;8.80;1.85;;;;;;;12.65;100.00;101532.47;10550912;28;20032;-70
2022/09/18 14:26:29;;;;;;;3.55;2.05;;;;;;;12.48;100.00;101548.22;10552107;28;20035;-71
2022/09/18 14:31:32;;;;;;;8.40;3.03;;;;;;;12.39;100.00;101556.69;10585630;28;20020;-70
2022/09/18 14:36:43;;;;;;;5.65;3.10;;;;;;;12.43;100.00;101545.22;10567403;28;20456;-70
2022/09/18 14:41:43;;;;;;;10.02;2.60;;;;;;;12.47;100.00;101542.97;10567221;28;20112;-70
2022/09/18 14:47:02;;;;;;;5.22;2.63;;;;;;;12.60;100.00;101532.22;10567374;28;20069;-71
2022/09/18 14:52:02;;;;;;;4.05;1.70;;;;;;;12.72;100.00;101535.25;10574934;28;20077;-71
2022/09/18 14:57:03;;;;;;;4.10;1.77;;;;;;;12.71;100.00;101530.88;10586659;28;20075;-71
2022/09/18 15:02:28;;;;;;;3.47;1.17;;;;;;;12.70;100.00;101516.44;10584191;28;20034;-71
2022/09/18 15:07:28;;;;;;;5.32;2.25;;;;;;;12.66;100.00;101550.44;10559069;28;20031;-71
2022/09/18 15:12:31;;;;;;;9.77;2.72;;;;;;;12.46;100.00;101535.84;10553364;28;20034;-73
2022/09/18 15:17:32;;;;;;;4.68;2.45;;;;;;;12.35;100.00;101531.78;10567114;28;20032;-73
2022/09/18 15:22:33;;;;;;;8.15;2.67;;;;;;;12.36;100.00;101529.91;10583911;28;20371;-72
2022/09/18 15:27:33;;;;;;;7.13;2.72;;;;;;;12.39;100.00;101548.53;10565226;28;20031;-73
2022/09/18 15:32:40;;;;;;;10.90;1.95;;;;;;;12.42;100.00;101561.75;10565198;28;20041;-73
2022/09/18 15:37:41;;;;;;;3.50;1.70;;;;;;;12.30;100.00;101553.25;10583594;28;20122;-73
2022/09/18 15:43:12;;;;;;;3.40;1.80;;;;;;;12.18;100.00;101555.63;10547913;28;20122;-74
2022/09/18 15:48:33;;;;;;;6.75;1.48;;;;;;;12.10;100.00;101553.03;10562936;28;20047;-73
2022/09/18 15:53:35;;;;;;;1.45;1.20;;;;;;;12.08;100.00;101563.25;10582706;28;20382;-74
2022/09/18 15:58:41;;;;;;;9.18;1.35;;;;;;;12.13;100.00;101558.09;10564692;28;20032;-74
2022/09/18 16:03:41;;;;;;;5.65;2.92;;;;;;;12.17;100.00;101551.22;10564465;28;20039;-74
2022/09/18 16:08:42;;;;;;;3.88;2.67;;;;;;;12.21;100.00;101587.81;10548822;28;20031;-74
2022/09/18 16:13:42;;;;;;;6.57;1.90;;;;;;;12.06;100.00;101584.28;10582431;28;20067;-73
2022/09/18 16:19:12;;;;;;;11.63;1.95;;;;;;;11.92;100.00;101585.19;10582313;28;20031;-73
2022/09/18 16:24:22;;;;;;;3.55;1.75;;;;;;;11.68;100.00;101589.00;10582816;28;20111;-72
2022/09/18 16:29:23;;;;;;;10.07;1.88;;;;;;;11.60;100.00;101581.81;10580710;28;20023;-72
2022/09/18 16:34:25;;;;;;;2.20;1.88;;;;;;;11.59;100.00;101599.97;10583246;28;20416;-73
2022/09/18 16:39:26;;;;;;;11.70;2.33;;;;;;;11.62;100.00;101599.59;10564357;28;20053;-73
2022/09/18 16:44:26;;;;;;;9.48;3.03;;;;;;;11.60;100.00;101600.78;10582164;28;20036;-73
2022/09/18 16:49:29;;;;;;;6.13;2.20;;;;;;;11.65;100.00;101592.94;10582750;28;20352;-74
2022/09/18 16:54:29;;;;;;;4.38;2.30;;;;;;;11.62;100.00;101583.31;10569968;28;20036;-74
2022/09/18 16:59:30;;;;;;;9.25;3.10;;;;;;;11.64;100.00;101588.53;10554537;28;20035;-74
2022/09/18 17:04:31;;;;;;;12.02;1.90;;;;;;;11.61;100.00;101592.47;10588229;28;20027;-74
2022/09/18 17:09:32;;;;;;;5.22;2.33;;;;;;;11.57;100.00;101601.16;10587973;28;20504;-74
2022/09/18 17:14:36;;;;;;;9.80;1.58;;;;;;;11.55;100.00;101603.22;10571107;28;20100;-73
2022/09/18 17:19:38;;;;;;;2.88;1.42;;;;;;;11.55;100.00;101620.34;10570493;28;20115;-74
2022/09/18 17:24:38;;;;;;;8.35;3.15;;;;;;;11.56;100.00;101648.31;10584099;28;20092;-74
2022/09/18 17:29:39;;;;;;;3.08;1.95;;;;;;;11.43;100.00;101642.69;10604600;28;20028;-73
2022/09/18 17:34:39;;;;;;;13.05;2.85;;;;;;;11.35;100.00;101630.88;10594091;28;20031;-73
2022/09/18 17:39:41;;;;;;;5.55;2.58;;;;;;;11.28;100.00;101631.81;10590316;28;20055;-73
2022/09/18 17:44:41;;;;;;;8.68;3.03;;;;;;;11.10;100.00;101633.00;10587697;28;20058;-72
2022/09/18 17:49:41;;;;;;;14.15;3.88;;;;;;;10.91;100.00;101631.63;10587522;28;20035;-73
2022/09/18 17:54:42;;;;;;;1.75;1.30;;;;;;;10.78;100.00;101627.81;10587132;28;20031;-73
2022/09/18 17:59:43;;;;;;;5.55;3.38;;;;;;;10.73;100.00;101627.56;10570418;28;20055;-73
2022/09/18 18:04:43;;;;;;;13.30;3.13;;;;;;;10.72;100.00;101640.25;10567869;28;20051;-73
2022/09/18 18:09:43;;;;;;;4.25;2.25;;;;;;;10.73;100.00;101655.47;10568318;28;20360;-73
2022/09/18 18:14:44;;;;;;;10.02;1.85;;;;;;;10.90;100.00;101669.75;10586577;28;20031;-74
2022/09/18 18:19:44;;;;;;;10.18;2.33;;;;;;;10.80;100.00;101658.31;10586242;28;20035;-72
2022/09/18 18:24:47;;;;;;;9.32;2.72;;;;;;;10.64;100.00;101664.69;10586828;28;20042;-73
2022/09/18 18:29:51;;;;;;;6.53;2.55;;;;;;;10.60;100.00;101682.31;10567975;28;20114;-73
2022/09/18 18:34:51;;;;;;;3.78;1.65;;;;;;;10.64;100.00;101679.06;10586482;28;20467;-73
2022/09/18 18:39:52;;;;;;;19.00;2.53;;;;;;;10.64;100.00;101679.06;10567387;28;20040;-73
2022/09/18 18:44:52;;;;;;;6.22;2.20;;;;;;;10.66;100.00;101695.16;10584756;28;20024;-74
2022/09/18 18:49:53;;;;;;;4.18;2.17;;;;;;;10.72;100.00;101707.97;10585004;28;20032;-74
2022/09/18 18:54:53;;;;;;;20.98;3.38;;;;;;;10.77;100.00;101719.09;10566676;28;20074;-74
2022/09/18 18:59:56;;;;;;;3.90;2.80;;;;;;;10.73;100.00;101712.38;10584714;28;20097;-74
2022/09/18 19:05:01;;;;;;;6.32;1.38;;;;;;;10.64;100.00;101727.81;10566382;28;20051;-74
2022/09/18 19:10:02;;;;;;;13.30;2.92;;;;;;;10.59;100.00;101730.22;10585285;28;20110;-74
2022/09/18 19:15:02;;;;;;;15.80;3.65;;;;;;;10.61;100.00;101739.00;10583592;28;20459;-74
2022/09/18 19:20:03;;;;;;;9.30;2.30;;;;;;;10.69;100.00;101744.38;10583713;28;20464;-74
2022/09/18 19:25:05;;;;;;;8.10;2.50;;;;;;;10.72;100.00;101751.31;10584225;28;20031;-74
2022/09/18 19:30:06;;;;;;;20.15;2.72;;;;;;;10.97;100.00;101762.00;10584531;28;20451;-74
2022/09/18 19:35:06;;;;;;;6.07;1.73;;;;;;;10.83;100.00;101764.44;10583046;28;20035;-72
2022/09/18 19:40:07;;;;;;;18.02;3.58;;;;;;;10.68;100.00;101774.34;10582576;28;20032;-73
2022/09/18 19:45:08;;;;;;;4.70;2.15;;;;;;;10.51;100.00;101775.47;10584026;28;20077;-73
2022/09/18 19:50:18;;;;;;;7.93;4.05;;;;;;;10.36;100.00;101789.72;10565302;28;20027;-73
2022/09/18 19:55:19;;;;;;;16.20;2.85;;;;;;;10.45;100.00;101787.81;10548927;28;20052;-74
2022/09/18 20:00:20;;;;;;;12.27;4.90;;;;;;;10.35;100.00;101796.16;10548488;28;20356;-73
2022/09/18 20:05:20;;;;;;;5.50;3.15;;;;;;;10.29;100.00;101790.59;10548838;28;20114;-73
2022/09/18 20:10:21;;;;;;;15.75;3.22;;;;;;;10.32;100.00;101784.84;10585974;28;20089;-74
2022/09/18 20:15:22;;;;;;;11.70;3.40;;;;;;;10.23;100.00;101781.25;10589221;28;20032;-74
2022/09/18 20:20:23;;;;;;;14.07;3.53;;;;;;;10.30;100.00;101793.09;10573561;28;20036;-74
2022/09/18 20:25:24;;;;;;;4.90;2.28;;;;;;;10.34;100.00;101791.75;10588341;28;20039;-73
2022/09/18 20:30:25;;;;;;;31.10;4.88;;;;;;;10.42;100.00;101794.44;10572346;28;20054;-74
2022/09/18 20:35:25;;;;;;;12.38;2.97;;;;;;;10.44;100.00;101803.22;10572499;28;20138;-74
2022/09/18 20:40:26;;;;;;;19.85;4.40;;;;;;;10.39;100.00;101796.66;10591033;28;20027;-74
2022/09/18 20:45:26;;;;;;;7.63;3.30;;;;;;;10.34;100.00;101805.31;10589624;28;20036;-74
2022/09/18 20:50:27;;;;;;;4.38;2.70;;;;;;;10.45;100.00;101802.19;10589527;28;20080;-74
2022/09/18 20:55:27;;;;;;;11.25;2.72;;;;;;;10.52;100.00;101805.06;10590558;28;20046;-74
2022/09/18 21:00:28;;;;;;;3.33;1.80;;;;;;;10.49;100.00;101808.13;10571268;28;20035;-75
2022/09/18 21:05:28;;;;;;;3.47;2.20;;;;;;;10.45;100.00;101814.91;10590594;28;20479;-75
2022/09/18 21:10:30;;;;;;;5.32;2.95;;;;;;;10.51;100.00;101814.22;10572069;28;20050;-75
2022/09/18 21:15:30;;;;;;;24.45;4.30;;;;;;;10.58;100.00;101817.06;10571001;28;20073;-75
2022/09/18 21:20:31;;;;;;;7.43;2.45;;;;;;;10.78;100.00;101812.91;10589451;28;20475;-76
2022/09/18 21:25:32;;;;;;;11.77;3.05;;;;;;;11.17;100.00;101817.47;10588920;28;20039;-75
2022/09/18 21:30:33;;;;;;;14.63;2.83;;;;;;;11.26;100.00;101838.03;10588812;28;20028;-75
2022/09/18 21:35:34;;;;;;;14.45;2.97;;;;;;;11.22;100.00;101828.59;10587478;28;20052;-74
2022/09/18 21:40:35;;;;;;;6.85;2.55;;;;;;;11.15;100.00;101833.03;10568277;28;20039;-74
2022/09/18 21:45:35;;;;;;;13.35;3.83;;;;;;;11.19;100.00;101839.78;10569631;28;20031;-75
2022/09/18 21:50:36;;;;;;;3.05;2.60;;;;;;;11.17;100.00;101839.97;10586043;28;20118;-75
2022/09/18 21:55:37;;;;;;;11.90;2.88;;;;;;;11.20;100.00;101844.22;10587515;28;20046;-75
2022/09/18 22:00:37;;;;;;;17.67;2.83;;;;;;;11.07;100.00;101852.94;10569053;28;20067;-75
2022/09/18 22:05:38;;;;;;;10.68;2.92;;;;;;;10.96;100.00;101847.88;10569879;28;20047;-74
2022/09/18 22:10:39;;;;;;;4.70;3.08;;;;;;;10.91;100.00;101848.44;10586742;28;20043;-75
2022/09/18 22:15:39;;;;;;;3.20;1.60;;;;;;;10.91;100.00;101855.69;10569119;28;20066;-75
2022/09/18 22:20:39;;;;;;;2.92;2.60;;;;;;;10.84;100.00;101855.53;10568399;28;20032;-74
2022/09/18 22:25:40;;;;;;;7.15;2.75;;;;;;;10.85;100.00;101851.00;10587455;28;20035;-75
2022/09/18 22:30:40;;;;;;;14.57;2.97;;;;;;;11.06;100.00;101858.50;10568905;28;20447;-75
2022/09/18 22:35:41;;;;;;;12.45;2.25;;;;;;;11.31;100.00;101859.22;10586432;28;20104;-75
2022/09/18 22:40:41;;;;;;;7.22;2.13;;;;;;;11.39;100.00;101865.44;10586162;28;20371;-75
2022/09/18 22:45:41;;;;;;;7.63;2.33;;;;;;;11.39;100.00;101862.72;10586013;28;20054;-75
2022/09/18 22:50:42;;;;;;;14.70;3.70;;;;;;;11.40;100.00;101858.97;10568599;28;20031;-75
2022/09/18 22:55:43;;;;;;;3.00;2.10;;;;;;;11.40;100.00;101861.69;10566802;28;20126;-74
2022/09/18 23:00:43;;;;;;;17.23;2.63;;;;;;;11.35;100.00;101863.25;10586587;28;20075;-74